Time;durP1;ratioP1;P1;durP2;ratioP2;P2;SDS_P1;SDS_P2;PMS_P1;PMS_P2;Temp;Humidity;BMP_temperature;BMP_pressure;BME280_temperature;BME280_humidity;BME280_pressure;Samples;Min_cycle;Max_cycle;Signal;HPM_P1;HPM_P2
2023/04/18 04:48:05;;;;;;;6.80;4.82;;;12.90;62.00;;;;;;5092755;23;20055;-76
2023/04/18 04:50:35;;;;;;;12.00;5.22;;;12.90;62.40;;;;;;4950845;28;20079;-82
2023/04/18 04:53:01;;;;;;;9.70;3.97;;;12.90;62.60;;;;;;4952693;29;20055;-76
2023/04/18 04:55:26;;;;;;;9.35;4.15;;;13.00;63.00;;;;;;4956171;29;20062;-78
2023/04/18 04:57:53;;;;;;;11.73;4.28;;;13.10;63.00;;;;;;4953965;28;20055;-76
2023/04/18 05:00:20;;;;;;;13.38;4.63;;;13.30;63.10;;;;;;4956836;28;20047;-74
2023/04/18 05:02:46;;;;;;;13.65;4.47;;;13.40;63.30;;;;;;4955623;28;20051;-78
2023/04/18 05:05:12;;;;;;;17.13;4.30;;;13.60;63.60;;;;;;4956345;29;20047;-78
2023/04/18 05:07:38;;;;;;;11.50;4.45;;;13.80;63.70;;;;;;4942124;29;20043;-76
2023/04/18 05:10:04;;;;;;;17.23;4.40;;;13.90;63.90;;;;;;4937681;29;20047;-73
2023/04/18 05:12:30;;;;;;;19.48;5.15;;;14.10;64.20;;;;;;4937735;29;20099;-76
2023/04/18 05:14:56;;;;;;;33.97;5.40;;;14.10;64.30;;;;;;4938297;29;20079;-73
2023/04/18 05:17:22;;;;;;;22.40;5.82;;;14.20;64.00;;;;;;4937660;29;20040;-74
2023/04/18 05:19:48;;;;;;;30.40;6.18;;;14.20;64.60;;;;;;4937313;29;20126;-75
2023/04/18 05:22:14;;;;;;;27.17;5.68;;;14.20;65.10;;;;;;4937443;29;20119;-74
2023/04/18 05:24:40;;;;;;;29.05;5.85;;;14.30;65.10;;;;;;4937641;29;20052;-74
2023/04/18 05:27:06;;;;;;;32.08;5.93;;;14.30;65.60;;;;;;4937458;29;20164;-73
2023/04/18 05:29:32;;;;;;;34.55;5.45;;;14.40;65.70;;;;;;4940787;29;20059;-75
2023/04/18 05:31:59;;;;;;;43.50;6.70;;;14.50;66.10;;;;;;4941051;29;20056;-74
2023/04/18 05:34:25;;;;;;;41.15;7.13;;;14.60;66.50;;;;;;4941579;29;20059;-75
2023/04/18 05:36:51;;;;;;;38.08;7.32;;;14.80;66.60;;;;;;4940736;29;20061;-75
2023/04/18 05:39:17;;;;;;;43.35;7.30;;;14.90;67.10;;;;;;4940938;29;20051;-76
2023/04/18 05:41:42;;;;;;;38.50;7.65;;;15.00;67.20;;;;;;4940724;29;20127;-78
2023/04/18 05:44:14;;;;;;;42.47;7.47;;;15.00;67.70;;;;;;4940964;29;20051;-81
2023/04/18 05:46:41;;;;;;;32.17;6.82;;;15.10;67.50;;;;;;4938920;29;20056;-76
2023/04/18 05:49:07;;;;;;;36.63;7.30;;;15.20;67.00;;;;;;4942247;29;20062;-77
2023/04/18 05:51:32;;;;;;;40.03;6.72;;;15.30;66.50;;;;;;4958692;29;20047;-77
2023/04/18 05:54:10;;;;;;;29.80;6.60;;;15.40;66.50;;;;;;4958515;29;20543;-79
2023/04/18 05:56:36;;;;;;;26.23;6.70;;;15.40;66.70;;;;;;4941207;29;20118;-79
2023/04/18 05:59:01;;;;;;;30.52;7.53;;;15.50;66.40;;;;;;4959024;29;20058;-76
2023/04/18 06:01:27;;;;;;;39.90;8.35;;;15.50;66.00;;;;;;4942512;29;20485;-72
2023/04/18 06:03:54;;;;;;;33.40;7.18;;;15.40;65.60;;;;;;4960017;29;20082;-77
2023/04/18 06:06:20;;;;;;;28.75;7.85;;;15.50;66.00;;;;;;4959431;29;20055;-78
2023/04/18 06:08:46;;;;;;;43.47;7.55;;;15.50;65.80;;;;;;4959548;29;20051;-79
2023/04/18 06:11:14;;;;;;;34.35;7.32;;;15.60;65.70;;;;;;4959179;29;20121;-77
2023/04/18 06:13:40;;;;;;;27.83;6.60;;;15.50;65.00;;;;;;4959355;29;20066;-78
2023/04/18 06:16:06;;;;;;;25.48;6.30;;;15.60;64.50;;;;;;4960216;29;20054;-76
2023/04/18 06:18:32;;;;;;;26.20;5.97;;;15.50;64.10;;;;;;4942631;29;20043;-80
2023/04/18 06:20:58;;;;;;;27.88;6.20;;;15.50;64.10;;;;;;4957480;29;20047;-80
2023/04/18 06:23:24;;;;;;;16.17;5.50;;;15.50;64.10;;;;;;4940162;29;20058;-80
2023/04/18 06:25:50;;;;;;;18.38;5.15;;;15.50;64.20;;;;;;4941945;29;20051;-78
2023/04/18 06:28:15;;;;;;;20.92;5.22;;;15.50;64.20;;;;;;4958417;29;20043;-79
2023/04/18 06:30:41;;;;;;;15.88;4.68;;;15.40;64.20;;;;;;4958192;29;20086;-79
2023/04/18 06:33:09;;;;;;;18.50;4.85;;;15.40;64.20;;;;;;4958740;29;20047;-78
2023/04/18 06:35:35;;;;;;;17.00;5.45;;;15.40;64.20;;;;;;4959243;29;20062;-77
2023/04/18 06:38:01;;;;;;;12.75;4.93;;;15.30;64.30;;;;;;4939803;29;20047;-78
2023/04/18 06:40:27;;;;;;;13.52;4.50;;;15.30;64.40;;;;;;4939187;29;20127;-78
2023/04/18 06:42:53;;;;;;;10.88;4.30;;;15.30;64.40;;;;;;4941146;29;20047;-77
2023/04/18 06:45:18;;;;;;;13.43;4.05;;;15.30;64.40;;;;;;4941802;29;20195;-78
2023/04/18 06:47:46;;;;;;;14.57;4.38;;;15.30;64.50;;;;;;4961399;28;20097;-79
2023/04/18 06:50:12;;;;;;;10.15;4.00;;;15.20;64.40;;;;;;4974909;28;20117;-82
2023/04/18 06:52:43;;;;;;;12.40;4.57;;;15.20;64.50;;;;;;4975869;28;20038;-81
2023/04/18 06:55:09;;;;;;;18.02;4.10;;;15.20;64.50;;;;;;4961147;28;20038;-81
2023/04/18 06:57:36;;;;;;;14.38;4.40;;;15.20;64.50;;;;;;4944428;28;20039;-81
2023/04/18 07:00:04;;;;;;;9.75;3.88;;;15.10;64.30;;;;;;4960062;28;20489;-83
2023/04/18 07:02:30;;;;;;;13.80;4.43;;;15.10;64.30;;;;;;4959889;28;20178;-77
2023/04/18 07:04:55;;;;;;;13.70;5.10;;;15.20;64.30;;;;;;4977585;28;20452;-79
2023/04/18 07:07:21;;;;;;;14.90;4.72;;;15.10;64.10;;;;;;4971471;28;20058;-79
2023/04/18 07:09:48;;;;;;;17.95;4.80;;;15.20;63.60;;;;;;4953431;28;20054;-78
2023/04/18 07:12:15;;;;;;;11.07;4.78;;;15.10;63.40;;;;;;4977466;28;20053;-79
2023/04/18 07:14:40;;;;;;;13.48;6.43;;;15.20;62.80;;;;;;4976894;28;20086;-79
2023/04/18 07:17:06;;;;;;;7.63;5.97;;;15.20;59.90;;;;;;4961050;28;20082;-79
2023/04/18 07:19:32;;;;;;;7.63;5.97;;;15.20;57.60;;;;;;4977086;28;20658;-80
2023/04/18 07:21:57;;;;;;;11.27;6.45;;;15.10;56.20;;;;;;4960943;28;20058;-77
2023/04/18 07:24:23;;;;;;;10.10;5.72;;;15.00;54.80;;;;;;4960137;28;20450;-78
2023/04/18 07:26:55;;;;;;;7.57;5.90;;;14.90;54.60;;;;;;4960439;28;20052;-80
2023/04/18 07:29:24;;;;;;;9.30;5.97;;;14.70;53.80;;;;;;4959727;28;20038;-79
2023/04/18 07:31:50;;;;;;;9.88;6.40;;;14.50;53.50;;;;;;4972483;28;20114;-79
2023/04/18 07:34:16;;;;;;;11.95;6.43;;;14.40;54.20;;;;;;4975330;28;20122;-78
2023/04/18 07:36:44;;;;;;;10.27;5.70;;;14.40;55.10;;;;;;4976748;28;20038;-77
2023/04/18 07:39:10;;;;;;;9.38;6.40;;;14.40;56.10;;;;;;4958531;28;20442;-75
2023/04/18 07:41:36;;;;;;;9.70;6.68;;;14.40;56.50;;;;;;4976038;28;20097;-79
2023/04/18 07:44:01;;;;;;;8.27;5.70;;;14.50;57.00;;;;;;4976216;28;20070;-76
2023/04/18 07:46:28;;;;;;;10.70;5.28;;;14.50;57.60;;;;;;4943913;28;20050;-79
2023/04/18 07:48:53;;;;;;;12.27;5.78;;;14.50;58.20;;;;;;4972861;28;20122;-79
2023/04/18 07:51:20;;;;;;;17.63;6.28;;;14.60;58.70;;;;;;4965362;28;20130;-78
2023/04/18 07:53:46;;;;;;;17.55;6.05;;;14.60;59.10;;;;;;4968408;28;20078;-74
2023/04/18 07:56:13;;;;;;;10.90;4.55;;;14.60;59.50;;;;;;4957637;28;20094;-76
2023/04/18 07:58:39;;;;;;;9.02;4.72;;;14.70;59.70;;;;;;4962700;28;20051;-78
2023/04/18 08:01:05;;;;;;;8.65;5.25;;;14.70;59.80;;;;;;4975893;28;20042;-76
2023/04/18 08:03:35;;;;;;;9.32;4.55;;;14.80;60.00;;;;;;4960192;28;20358;-72
2023/04/18 08:06:01;;;;;;;13.32;4.95;;;14.80;60.50;;;;;;4976795;28;20523;-73
2023/04/18 08:08:27;;;;;;;11.25;4.53;;;14.80;60.90;;;;;;4976645;28;20505;-76
2023/04/18 08:10:53;;;;;;;10.85;4.95;;;14.80;61.10;;;;;;4960142;28;20058;-76
2023/04/18 08:13:18;;;;;;;9.05;4.30;;;14.90;61.20;;;;;;4976495;28;20072;-74
2023/04/18 08:15:45;;;;;;;14.68;5.18;;;14.90;61.50;;;;;;4976877;28;20051;-77
2023/04/18 08:18:11;;;;;;;8.68;4.63;;;14.90;61.70;;;;;;4976200;28;20046;-75
2023/04/18 08:20:37;;;;;;;7.38;4.05;;;14.90;61.90;;;;;;4976586;28;20377;-76
2023/04/18 08:23:03;;;;;;;12.70;5.32;;;14.90;62.10;;;;;;4959069;28;20042;-75
2023/04/18 08:25:28;;;;;;;6.55;4.15;;;14.90;62.30;;;;;;4975118;28;20355;-77
2023/04/18 08:27:54;;;;;;;14.13;4.80;;;15.00;62.40;;;;;;4958953;28;20059;-75
2023/04/18 08:30:20;;;;;;;10.30;4.93;;;15.00;62.20;;;;;;4958340;28;20114;-77
2023/04/18 08:32:46;;;;;;;16.10;4.75;;;15.00;62.30;;;;;;4975691;28;20472;-77
2023/04/18 08:35:11;;;;;;;11.55;4.10;;;15.00;62.40;;;;;;4976011;28;20046;-77
2023/04/18 08:37:38;;;;;;;7.43;4.05;;;15.00;62.30;;;;;;4943376;28;20050;-77
2023/04/18 08:40:06;;;;;;;7.47;3.70;;;15.00;62.30;;;;;;4958676;28;20047;-80
2023/04/18 08:42:32;;;;;;;8.07;3.85;;;15.00;62.30;;;;;;4976104;28;20050;-78
2023/04/18 08:44:59;;;;;;;11.80;3.97;;;15.00;62.40;;;;;;4976027;28;20409;-74
2023/04/18 08:47:27;;;;;;;8.20;3.40;;;15.00;62.40;;;;;;4975296;28;20117;-78
2023/04/18 08:49:54;;;;;;;11.50;4.20;;;15.00;62.50;;;;;;4959174;28;20389;-76
2023/04/18 08:52:22;;;;;;;5.65;3.70;;;15.10;62.60;;;;;;4959105;28;20485;-77
2023/04/18 08:54:49;;;;;;;7.68;3.70;;;15.10;62.80;;;;;;4976072;28;20062;-76
2023/04/18 08:57:22;;;;;;;9.18;3.50;;;15.10;62.80;;;;;;4958785;28;20141;-74
2023/04/18 08:59:49;;;;;;;5.88;3.90;;;15.10;62.90;;;;;;4976284;28;20054;-76
2023/04/18 09:02:15;;;;;;;5.20;3.20;;;15.10;63.00;;;;;;4975801;28;20055;-76
2023/04/18 09:04:43;;;;;;;6.65;3.00;;;15.10;63.10;;;;;;4962343;28;20062;-77
2023/04/18 09:07:16;;;;;;;6.63;3.97;;;15.10;63.10;;;;;;4980634;28;21016;-74
2023/04/18 09:09:47;;;;;;;6.22;3.50;;;15.10;63.20;;;;;;4979452;28;20050;-75
2023/04/18 09:12:17;;;;;;;6.22;3.45;;;15.10;63.30;;;;;;4979870;28;20450;-74
2023/04/18 09:14:48;;;;;;;6.75;3.05;;;15.10;63.30;;;;;;4979178;28;20050;-78
2023/04/18 09:17:34;;;;;;;7.53;3.60;;;15.10;63.30;;;;;;4979245;28;20035;-76
2023/04/18 09:20:08;;;;;;;6.07;3.60;;;15.10;63.30;;;;;;4979843;28;20046;-74
2023/04/18 09:22:51;;;;;;;6.18;3.33;;;15.10;63.40;;;;;;4979156;28;20476;-80
2023/04/18 09:25:28;;;;;;;9.45;4.15;;;15.20;63.60;;;;;;4979770;28;20067;-76
2023/04/18 09:27:56;;;;;;;7.53;3.72;;;15.10;63.90;;;;;;4972876;28;20101;-77
2023/04/18 09:30:38;;;;;;;12.95;4.20;;;15.20;64.00;;;;;;4962961;28;20379;-75
2023/04/18 09:33:06;;;;;;;15.48;3.58;;;15.10;64.10;;;;;;4943496;29;20383;-77
2023/04/18 09:35:32;;;;;;;8.95;3.50;;;15.20;64.30;;;;;;4966643;28;20039;-76
2023/04/18 09:37:58;;;;;;;9.52;3.78;;;15.20;64.80;;;;;;4979665;28;20047;-78
2023/04/18 09:40:24;;;;;;;12.63;3.90;;;15.20;65.40;;;;;;4979093;28;20457;-79
2023/04/18 09:42:52;;;;;;;8.82;3.72;;;15.30;65.60;;;;;;4979214;28;20043;-75
2023/04/18 09:45:18;;;;;;;7.85;3.47;;;15.30;65.60;;;;;;4979207;28;20051;-80
2023/04/18 09:47:43;;;;;;;7.22;3.28;;;15.40;65.30;;;;;;4976429;28;20047;-75
2023/04/18 09:50:09;;;;;;;9.55;4.68;;;15.40;64.80;;;;;;4959132;29;20047;-75
2023/04/18 09:52:40;;;;;;;6.45;4.50;;;15.40;64.50;;;;;;4959939;29;20394;-77
2023/04/18 09:55:08;;;;;;;9.90;5.18;;;15.50;63.40;;;;;;4959500;28;20098;-76
2023/04/18 09:57:35;;;;;;;6.90;4.10;;;15.50;62.10;;;;;;4940931;29;20087;-77
2023/04/18 10:00:28;;;;;;;9.00;4.97;;;15.50;61.30;;;;;;4942290;29;20084;-77
2023/04/18 10:03:08;;;;;;;7.10;4.40;;;15.50;61.50;;;;;;4958933;29;20055;-77
2023/04/18 10:05:35;;;;;;;10.52;3.72;;;15.50;61.60;;;;;;4958611;28;20047;-77
2023/04/18 10:08:01;;;;;;;7.70;4.25;;;15.50;61.70;;;;;;4959338;29;20055;-79
2023/04/18 10:10:28;;;;;;;6.90;3.78;;;15.50;61.80;;;;;;4959658;29;20051;-76
2023/04/18 10:13:04;;;;;;;14.70;3.72;;;15.50;61.70;;;;;;4958416;29;20047;-80
2023/04/18 10:15:31;;;;;;;7.82;3.88;;;15.60;62.00;;;;;;4956199;28;20118;-78
2023/04/18 10:18:01;;;;;;;6.82;3.45;;;15.60;61.90;;;;;;4952106;28;20055;-81
2023/04/18 10:20:32;;;;;;;6.68;3.20;;;15.60;61.80;;;;;;4958830;29;20106;-77
2023/04/18 10:22:58;;;;;;;3.70;3.13;;;15.60;61.80;;;;;;4935752;29;20375;-76
2023/04/18 10:25:33;;;;;;;8.32;3.70;;;15.60;61.80;;;;;;4958089;29;20039;-80
2023/04/18 10:28:00;;;;;;;6.80;3.28;;;15.60;61.90;;;;;;4939224;29;20051;-75
2023/04/18 10:30:41;;;;;;;7.88;3.63;;;15.60;62.00;;;;;;4958920;29;20540;-74
2023/04/18 10:33:23;;;;;;;7.35;3.60;;;15.60;62.20;;;;;;4942067;29;20134;-78
2023/04/18 10:36:00;;;;;;;5.63;2.60;;;15.60;62.10;;;;;;4958824;29;20093;-74
2023/04/18 10:38:27;;;;;;;4.70;3.25;;;15.60;62.10;;;;;;4959151;29;20067;-79
2023/04/18 10:41:11;;;;;;;5.20;3.25;;;15.60;62.20;;;;;;4959095;29;20050;-78
2023/04/18 10:44:06;;;;;;;6.00;3.50;;;15.60;62.20;;;;;;4958738;29;20039;-76
2023/04/18 10:46:38;;;;;;;6.18;2.92;;;15.70;62.30;;;;;;4933296;29;20068;-77
2023/04/18 10:49:27;;;;;;;4.97;2.65;;;15.70;62.20;;;;;;4951123;29;20066;-78
2023/04/18 10:51:54;;;;;;;5.22;2.55;;;15.70;62.20;;;;;;4958151;29;20454;-77
2023/04/18 10:54:53;;;;;;;3.72;2.83;;;15.60;62.20;;;;;;4958635;29;20451;-79
2023/04/18 10:57:20;;;;;;;4.22;2.55;;;15.70;62.40;;;;;;4958345;28;20043;-77
2023/04/18 10:59:50;;;;;;;5.90;3.25;;;15.60;62.50;;;;;;4958762;29;20466;-79
2023/04/18 11:02:31;;;;;;;5.07;3.50;;;15.60;62.10;;;;;;4957058;29;20053;-78
2023/04/18 11:05:03;;;;;;;3.65;2.72;;;15.60;62.20;;;;;;4958086;29;20109;-79
2023/04/18 11:07:44;;;;;;;8.90;3.22;;;15.60;63.10;;;;;;4958036;28;20050;-78
2023/04/18 11:10:11;;;;;;;11.25;3.33;;;15.50;62.60;;;;;;4957331;29;20043;-80
2023/04/18 11:12:39;;;;;;;14.95;3.60;;;15.50;62.90;;;;;;4957800;28;20530;-75
2023/04/18 11:15:18;;;;;;;13.95;3.83;;;15.50;63.60;;;;;;4957672;29;20126;-76
2023/04/18 11:17:44;;;;;;;12.43;3.60;;;15.50;63.30;;;;;;4957379;29;20556;-77
2023/04/18 11:20:13;;;;;;;11.52;3.40;;;15.50;63.50;;;;;;4958472;28;20242;-77
2023/04/18 11:22:49;;;;;;;8.02;3.28;;;15.50;63.60;;;;;;4958065;29;20053;-76
2023/04/18 11:25:16;;;;;;;11.88;3.30;;;15.50;63.90;;;;;;4957912;28;20359;-77
2023/04/18 11:27:47;;;;;;;12.90;3.92;;;15.50;64.00;;;;;;4957123;29;20055;-79
2023/04/18 11:30:14;;;;;;;17.90;4.05;;;15.50;64.30;;;;;;4940726;29;20043;-80
2023/04/18 11:32:40;;;;;;;17.65;3.80;;;15.50;64.10;;;;;;4935584;29;20051;-80
2023/04/18 11:35:09;;;;;;;14.23;3.85;;;15.50;63.80;;;;;;4955673;29;20051;-76
2023/04/18 11:37:36;;;;;;;16.42;4.07;;;15.50;63.60;;;;;;4956921;29;20332;-79
2023/04/18 11:40:03;;;;;;;11.25;3.92;;;15.50;63.60;;;;;;4954549;29;20125;-77
2023/04/18 11:42:32;;;;;;;13.10;3.42;;;15.40;63.50;;;;;;4957895;29;20118;-79
2023/04/18 11:44:57;;;;;;;11.23;3.80;;;15.40;63.40;;;;;;4957810;28;20387;-79
2023/04/18 11:47:29;;;;;;;9.85;3.65;;;15.50;63.50;;;;;;4957789;28;20053;-79
2023/04/18 11:50:06;;;;;;;12.02;3.60;;;15.50;64.20;;;;;;4959824;28;20450;-76
2023/04/18 11:52:33;;;;;;;9.80;3.42;;;15.50;63.70;;;;;;4976790;28;20117;-79
2023/04/18 11:55:28;;;;;;;11.10;3.67;;;15.40;63.60;;;;;;4976492;28;20349;-76
2023/04/18 11:57:59;;;;;;;8.95;3.20;;;15.50;63.80;;;;;;4947708;28;20058;-80
2023/04/18 12:00:40;;;;;;;6.50;2.90;;;15.50;63.80;;;;;;4977285;28;20050;-79
2023/04/18 12:03:15;;;;;;;7.53;2.67;;;15.40;63.80;;;;;;4976712;28;20062;-78
2023/04/18 12:05:41;;;;;;;12.70;3.15;;;15.40;63.80;;;;;;4977285;28;20338;-79
2023/04/18 12:08:09;;;;;;;8.10;2.97;;;15.40;63.80;;;;;;4976894;28;20047;-78
2023/04/18 12:10:35;;;;;;;6.78;2.85;;;15.40;63.90;;;;;;4976678;28;20450;-76
2023/04/18 12:13:04;;;;;;;8.40;3.08;;;15.40;63.90;;;;;;4976231;28;20058;-77
2023/04/18 12:15:30;;;;;;;6.10;3.20;;;15.40;64.00;;;;;;4976854;28;20051;-77
2023/04/18 12:18:04;;;;;;;5.85;3.03;;;15.40;64.00;;;;;;4959771;28;20487;-78
2023/04/18 12:20:38;;;;;;;8.75;2.97;;;15.40;64.10;;;;;;4959306;28;20043;-78
2023/04/18 12:23:04;;;;;;;5.35;2.45;;;15.40;64.20;;;;;;4959706;28;20081;-76
2023/04/18 12:25:31;;;;;;;5.45;2.63;;;15.40;64.20;;;;;;4976338;28;20137;-78
2023/04/18 12:28:05;;;;;;;5.53;2.97;;;15.40;64.20;;;;;;4976731;28;20051;-77
2023/04/18 12:30:32;;;;;;;4.07;2.58;;;15.40;64.20;;;;;;4976594;28;20065;-79
2023/04/18 12:33:00;;;;;;;4.47;2.38;;;15.40;64.30;;;;;;4976544;28;20042;-78
2023/04/18 12:35:27;;;;;;;5.32;2.38;;;15.40;64.30;;;;;;4976301;28;20082;-77
2023/04/18 12:37:55;;;;;;;6.95;2.60;;;15.40;64.30;;;;;;4975860;28;20046;-80
2023/04/18 12:40:21;;;;;;;4.97;2.53;;;15.40;64.40;;;;;;4959040;28;20138;-76
2023/04/18 12:42:48;;;;;;;4.35;2.10;;;15.40;64.40;;;;;;4976028;28;20189;-78
2023/04/18 12:45:15;;;;;;;5.55;2.30;;;15.40;64.40;;;;;;4975837;28;20034;-77
2023/04/18 12:47:43;;;;;;;3.08;2.60;;;15.40;64.40;;;;;;4973749;28;20134;-76
2023/04/18 12:50:11;;;;;;;5.13;2.40;;;15.40;64.50;;;;;;4957080;29;20054;-77
2023/04/18 12:52:38;;;;;;;4.95;2.25;;;15.40;64.50;;;;;;4956668;29;20069;-78
2023/04/18 12:55:08;;;;;;;6.05;2.60;;;15.40;64.50;;;;;;4940711;29;20402;-77
2023/04/18 12:57:34;;;;;;;5.03;2.65;;;15.40;64.50;;;;;;4956762;29;20043;-77
2023/04/18 13:00:00;;;;;;;4.50;2.50;;;15.40;64.60;;;;;;4957117;29;20043;-77
2023/04/18 13:02:27;;;;;;;3.25;2.47;;;15.40;64.60;;;;;;4956941;29;20058;-76
2023/04/18 13:04:55;;;;;;;3.65;2.20;;;15.30;64.60;;;;;;4957123;29;20351;-76
2023/04/18 13:07:20;;;;;;;4.43;2.70;;;15.30;64.60;;;;;;4939856;29;20086;-76
2023/04/18 13:09:47;;;;;;;4.80;2.55;;;15.40;64.80;;;;;;4956824;29;20078;-78
2023/04/18 13:12:13;;;;;;;4.13;2.40;;;15.30;64.80;;;;;;4956267;29;20035;-76
2023/04/18 13:14:39;;;;;;;4.72;2.20;;;15.40;64.90;;;;;;4939529;29;20058;-77
2023/04/18 13:17:05;;;;;;;4.38;2.38;;;15.30;64.90;;;;;;4956678;29;20126;-78
2023/04/18 13:19:31;;;;;;;8.27;3.08;;;15.30;64.80;;;;;;4956407;29;20443;-78
2023/04/18 13:21:57;;;;;;;4.85;2.88;;;15.30;64.90;;;;;;4923795;29;20128;-77
2023/04/18 13:24:23;;;;;;;9.85;3.22;;;15.40;65.00;;;;;;4956526;29;20093;-78
2023/04/18 13:26:49;;;;;;;10.52;4.20;;;15.30;65.10;;;;;;4924278;29;20078;-76
2023/04/18 13:29:15;;;;;;;10.75;3.70;;;15.40;65.00;;;;;;4956517;29;20047;-76
2023/04/18 13:31:55;;;;;;;8.50;3.28;;;15.30;65.20;;;;;;4950533;29;20371;-76
2023/04/18 13:34:27;;;;;;;6.72;3.35;;;15.30;65.70;;;;;;4955750;29;20151;-78
2023/04/18 13:36:53;;;;;;;10.77;4.60;;;15.40;65.90;;;;;;4939334;29;20340;-79
2023/04/18 13:39:19;;;;;;;10.48;4.30;;;15.40;65.70;;;;;;4956437;29;20090;-77
2023/04/18 13:41:45;;;;;;;10.50;4.53;;;15.40;65.70;;;;;;4956430;29;20039;-79
2023/04/18 13:44:10;;;;;;;9.02;4.10;;;15.30;65.60;;;;;;4956706;29;20054;-79
2023/04/18 13:46:36;;;;;;;8.90;4.20;;;15.30;65.60;;;;;;4957030;29;20347;-77
2023/04/18 13:49:02;;;;;;;9.52;4.45;;;15.30;65.40;;;;;;4953714;28;20047;-77
2023/04/18 13:51:28;;;;;;;11.82;5.68;;;15.30;65.30;;;;;;4979093;28;20350;-76
2023/04/18 13:53:54;;;;;;;6.07;4.65;;;15.40;65.10;;;;;;4978765;28;20047;-76
2023/04/18 13:56:20;;;;;;;7.80;4.63;;;15.40;65.00;;;;;;4978812;28;20043;-76
2023/04/18 13:58:45;;;;;;;7.32;5.10;;;15.40;65.00;;;;;;4978846;28;20195;-76
2023/04/18 14:01:15;;;;;;;11.10;5.60;;;15.40;64.80;;;;;;4978956;28;20429;-78
2023/04/18 14:03:41;;;;;;;28.38;9.00;;;15.40;64.60;;;;;;4946035;28;20410;-77
2023/04/18 14:06:06;;;;;;;28.75;9.18;;;15.40;65.30;;;;;;4978936;28;20038;-78
2023/04/18 14:08:32;;;;;;;24.27;9.75;;;15.40;65.80;;;;;;4961873;28;20042;-77
2023/04/18 14:10:58;;;;;;;16.67;8.48;;;15.50;67.70;;;;;;4978935;28;20053;-77
2023/04/18 14:13:23;;;;;;;22.55;8.07;;;15.50;68.30;;;;;;4978977;28;20413;-78
2023/04/18 14:15:51;;;;;;;18.15;8.32;;;15.50;68.10;;;;;;4978951;28;20473;-77
2023/04/18 14:18:20;;;;;;;18.80;9.77;;;15.50;67.90;;;;;;4961481;28;20054;-80
2023/04/18 14:21:01;;;;;;;21.48;8.52;;;15.50;68.50;;;;;;4945743;28;20053;-83
2023/04/18 14:23:56;;;;;;;13.40;7.57;;;15.60;67.70;;;;;;4945281;28;20500;-83
2023/04/18 14:26:22;;;;;;;14.45;6.57;;;15.60;66.40;;;;;;4941374;29;20076;-74
2023/04/18 14:28:48;;;;;;;12.75;7.43;;;15.50;65.80;;;;;;4942631;29;20463;-75
2023/04/18 14:31:14;;;;;;;14.88;6.85;;;15.50;65.70;;;;;;4974044;28;20057;-75
2023/04/18 14:33:40;;;;;;;13.77;6.85;;;15.50;65.80;;;;;;4957560;28;20043;-77
2023/04/18 14:36:07;;;;;;;12.70;7.25;;;15.50;66.60;;;;;;4971078;28;20079;-79
2023/04/18 14:38:33;;;;;;;13.50;7.10;;;15.50;66.00;;;;;;4977873;28;20437;-76
2023/04/18 14:40:59;;;;;;;15.38;6.70;;;15.50;66.00;;;;;;4971672;28;20053;-76
2023/04/18 14:43:26;;;;;;;13.52;6.47;;;15.60;65.90;;;;;;4956403;28;20042;-78
2023/04/18 14:45:52;;;;;;;10.75;6.45;;;15.60;66.10;;;;;;4960662;28;20051;-77
2023/04/18 14:48:17;;;;;;;9.15;6.07;;;15.60;66.10;;;;;;4963877;28;20074;-78
2023/04/18 14:50:43;;;;;;;6.60;5.40;;;15.60;66.10;;;;;;4958594;29;20075;-77
2023/04/18 14:53:10;;;;;;;10.23;6.53;;;15.60;66.00;;;;;;4959013;28;20153;-77
2023/04/18 14:55:36;;;;;;;7.88;5.85;;;15.60;65.70;;;;;;4958652;29;20051;-77
2023/04/18 14:58:02;;;;;;;10.57;5.93;;;15.60;65.60;;;;;;4954637;29;20040;-76
2023/04/18 15:00:29;;;;;;;9.07;6.80;;;15.60;65.30;;;;;;4957100;28;20343;-78
2023/04/18 15:02:55;;;;;;;8.88;6.30;;;15.60;65.20;;;;;;4957900;29;20054;-76
2023/04/18 15:05:23;;;;;;;8.18;5.53;;;15.60;65.20;;;;;;4956778;29;20383;-78
2023/04/18 15:07:52;;;;;;;8.80;5.78;;;15.60;65.20;;;;;;4955297;29;20035;-78
2023/04/18 15:10:19;;;;;;;8.18;6.07;;;15.60;65.30;;;;;;4954618;29;20039;-77
2023/04/18 15:12:46;;;;;;;10.95;6.95;;;15.60;65.40;;;;;;4958342;29;20075;-78
2023/04/18 15:15:12;;;;;;;8.00;6.57;;;15.60;65.30;;;;;;4957977;29;20044;-78
2023/04/18 15:17:38;;;;;;;9.52;6.00;;;15.60;65.40;;;;;;4958318;29;20047;-77
2023/04/18 15:20:06;;;;;;;11.50;5.70;;;15.60;65.50;;;;;;4958132;29;20077;-78
2023/04/18 15:22:32;;;;;;;9.43;5.22;;;15.50;65.50;;;;;;4955782;29;20051;-76
2023/04/18 15:24:58;;;;;;;8.32;5.70;;;15.50;65.80;;;;;;4941550;29;20074;-79
2023/04/18 15:27:24;;;;;;;9.68;5.93;;;15.50;65.80;;;;;;4957090;29;20442;-78
2023/04/18 15:29:50;;;;;;;10.02;5.65;;;15.50;65.40;;;;;;4956384;29;20090;-77
2023/04/18 15:32:16;;;;;;;12.73;5.53;;;15.60;65.30;;;;;;4957266;29;20059;-80
2023/04/18 15:34:41;;;;;;;5.63;4.22;;;15.60;65.20;;;;;;4957062;29;20047;-78
2023/04/18 15:37:08;;;;;;;10.75;4.95;;;15.70;65.10;;;;;;4958337;28;20369;-79
2023/04/18 15:39:33;;;;;;;6.65;4.70;;;15.70;65.00;;;;;;4956803;29;20047;-78
2023/04/18 15:42:01;;;;;;;9.52;4.55;;;15.80;65.00;;;;;;4956630;29;20500;-79
2023/04/18 15:44:27;;;;;;;7.30;4.40;;;15.90;65.00;;;;;;4956724;29;20039;-80
2023/04/18 15:46:52;;;;;;;9.13;4.10;;;15.90;65.10;;;;;;4957450;29;20042;-79
2023/04/18 15:49:27;;;;;;;12.90;4.50;;;16.00;65.20;;;;;;4963047;28;20347;-78
2023/04/18 15:51:53;;;;;;;10.75;4.95;;;16.00;65.30;;;;;;4950134;29;20062;-79
2023/04/18 15:54:19;;;;;;;15.40;3.85;;;16.10;65.40;;;;;;4921688;29;20430;-81
2023/04/18 15:56:45;;;;;;;10.15;4.40;;;16.10;65.50;;;;;;4921580;29;20114;-81
2023/04/18 15:59:11;;;;;;;11.32;4.53;;;16.20;65.80;;;;;;4927819;29;20056;-79
2023/04/18 16:01:37;;;;;;;9.80;4.07;;;16.20;65.90;;;;;;4924574;29;20109;-82
2023/04/18 16:04:03;;;;;;;16.75;4.95;;;16.20;66.00;;;;;;4940691;29;20050;-82
2023/04/18 16:06:30;;;;;;;21.40;4.50;;;16.20;66.20;;;;;;4924627;29;20454;-78
2023/04/18 16:08:56;;;;;;;13.63;3.70;;;16.20;66.20;;;;;;4924893;29;20085;-85
2023/04/18 16:11:24;;;;;;;13.70;4.80;;;16.20;66.30;;;;;;4940370;28;20376;-78
2023/04/18 16:14:03;;;;;;;15.93;5.32;;;16.30;66.30;;;;;;4940166;29;20187;-80
2023/04/18 16:16:29;;;;;;;17.77;5.57;;;16.30;66.30;;;;;;4924643;29;20131;-80
2023/04/18 16:18:54;;;;;;;21.58;5.40;;;16.30;66.60;;;;;;4955244;29;20126;-82
2023/04/18 16:21:20;;;;;;;25.20;5.65;;;16.30;66.70;;;;;;4923529;29;20051;-79
2023/04/18 16:23:47;;;;;;;29.90;4.95;;;16.30;66.90;;;;;;4939907;29;20050;-80
2023/04/18 16:26:13;;;;;;;27.45;4.97;;;16.30;67.10;;;;;;4957176;29;20390;-79
2023/04/18 16:28:40;;;;;;;39.55;7.00;;;16.30;67.30;;;;;;4940507;29;20168;-80
2023/04/18 16:31:06;;;;;;;27.10;6.15;;;16.30;67.60;;;;;;4940035;29;20043;-80
2023/04/18 16:33:32;;;;;;;41.33;7.35;;;16.30;67.80;;;;;;4957019;28;20447;-80
2023/04/18 16:36:01;;;;;;;39.97;6.55;;;16.30;67.90;;;;;;4956890;29;20123;-81
2023/04/18 16:38:27;;;;;;;41.60;7.68;;;16.30;68.10;;;;;;4940050;29;20039;-74
2023/04/18 16:41:00;;;;;;;56.30;7.90;;;16.30;68.90;;;;;;4956453;28;20054;-79
2023/04/18 16:43:27;;;;;;;48.53;8.10;;;16.30;68.30;;;;;;4939819;29;20050;-80
2023/04/18 16:45:56;;;;;;;37.13;7.75;;;16.30;68.40;;;;;;4940213;29;20055;-81
2023/04/18 16:48:25;;;;;;;38.80;7.53;;;16.30;68.60;;;;;;4964119;28;20075;-80
2023/04/18 16:50:54;;;;;;;42.80;7.90;;;16.30;68.80;;;;;;4959587;28;20055;-78
2023/04/18 16:53:21;;;;;;;44.10;8.23;;;16.30;68.90;;;;;;4976334;28;20051;-80
2023/04/18 16:55:49;;;;;;;54.33;9.00;;;16.30;68.90;;;;;;4943028;28;20435;-81
2023/04/18 16:58:15;;;;;;;54.25;9.30;;;16.40;68.80;;;;;;4959380;28;20051;-81
2023/04/18 17:00:41;;;;;;;41.65;9.63;;;16.30;67.90;;;;;;4959203;28;20207;-77
2023/04/18 17:03:08;;;;;;;36.97;8.68;;;16.30;67.40;;;;;;4969175;28;20051;-80
2023/04/18 17:05:35;;;;;;;48.13;8.90;;;16.30;66.90;;;;;;4975331;28;20043;-77
2023/04/18 17:08:02;;;;;;;40.28;9.85;;;16.30;66.40;;;;;;4959050;28;20059;-79
2023/04/18 17:10:28;;;;;;;56.58;10.68;;;16.40;66.20;;;;;;4957945;28;20506;-81
2023/04/18 17:12:54;;;;;;;45.65;9.32;;;16.40;66.00;;;;;;4939772;29;20054;-79
2023/04/18 17:15:20;;;;;;;38.92;7.65;;;16.40;65.90;;;;;;4939884;29;20521;-79
2023/04/18 17:17:46;;;;;;;47.17;9.05;;;16.30;65.40;;;;;;4969121;28;20058;-78
2023/04/18 17:20:12;;;;;;;44.22;8.40;;;16.30;65.30;;;;;;4975502;28;20142;-78
2023/04/18 17:22:41;;;;;;;40.42;8.55;;;16.30;65.50;;;;;;4959057;28;20465;-79
2023/04/18 17:25:07;;;;;;;33.08;7.93;;;16.30;65.60;;;;;;4960758;28;20046;-81
2023/04/18 17:27:40;;;;;;;36.30;8.63;;;16.20;65.70;;;;;;4943106;29;20043;-80
2023/04/18 17:30:09;;;;;;;62.73;8.87;;;16.20;66.10;;;;;;4927288;29;20046;-85
2023/04/18 17:32:44;;;;;;;37.13;8.38;;;16.20;66.30;;;;;;4927327;29;20129;-83